Terminal Aerodrome Forecast
Issued by NWS

Current Version | Previous Version | Text Only | Print | Product List | Glossary On
Versions: 1 2 3 4 5 6 7 8 9 10 11 12 13 14 15 16 17 18
757
FTUS42 KMLB 251130
TAFFPR
TAF
KFPR 251130Z 2512/2612 00000KT 1/2SM FG BKN003
      TEMPO 2512/2513 1/4SM FG VV002
     FM251300 23004KT 5SM BR SCT005 BKN010
     FM251500 25007KT P6SM SCT015 SCT035
     FM260000 26004KT P6SM SCT035
     FM260600 33006KT P6SM SCT030 BKN060=

USA.gov is the U.S. government's official web portal to all federal, state and local government web resources and services.